sensor_id;sensor_type;location;lat;lon;timestamp;temperature;humidity
21590;DHT22;10957;50.968;6.828;2023-03-13T00:02:03;10.00;99.90
21590;DHT22;10957;50.968;6.828;2023-03-13T00:07:04;10.10;99.90
21590;DHT22;10957;50.968;6.828;2023-03-13T00:12:05;10.20;99.90
21590;DHT22;10957;50.968;6.828;2023-03-13T00:17:07;9.90;99.90
21590;DHT22;10957;50.968;6.828;2023-03-13T00:22:08;10.00;99.90
21590;DHT22;10957;50.968;6.828;2023-03-13T00:27:09;9.90;99.90
21590;DHT22;10957;50.968;6.828;2023-03-13T00:32:11;10.20;99.90
21590;DHT22;10957;50.968;6.828;2023-03-13T00:37:12;10.40;99.90
21590;DHT22;10957;50.968;6.828;2023-03-13T00:42:14;9.60;99.90
21590;DHT22;10957;50.968;6.828;2023-03-13T00:47:15;10.40;99.90
21590;DHT22;10957;50.968;6.828;2023-03-13T00:52:17;9.70;99.90
21590;DHT22;10957;50.968;6.828;2023-03-13T00:57:18;10.10;99.90
21590;DHT22;10957;50.968;6.828;2023-03-13T01:02:20;9.50;99.90
21590;DHT22;10957;50.968;6.828;2023-03-13T01:07:22;10.20;99.90
21590;DHT22;10957;50.968;6.828;2023-03-13T01:12:23;9.90;99.90
21590;DHT22;10957;50.968;6.828;2023-03-13T01:17:24;10.30;99.90
21590;DHT22;10957;50.968;6.828;2023-03-13T01:22:25;10.80;99.90
21590;DHT22;10957;50.968;6.828;2023-03-13T01:27:28;10.70;99.90
21590;DHT22;10957;50.968;6.828;2023-03-13T01:32:32;10.60;99.90
21590;DHT22;10957;50.968;6.828;2023-03-13T01:37:36;11.00;99.90
21590;DHT22;10957;50.968;6.828;2023-03-13T01:42:52;10.90;99.90
21590;DHT22;10957;50.968;6.828;2023-03-13T01:47:53;10.90;99.90
21590;DHT22;10957;50.968;6.828;2023-03-13T01:53:04;11.10;99.90
21590;DHT22;10957;50.968;6.828;2023-03-13T01:58:06;11.00;99.90
21590;DHT22;10957;50.968;6.828;2023-03-13T02:03:13;10.60;99.90
21590;DHT22;10957;50.968;6.828;2023-03-13T02:08:17;10.50;99.90
21590;DHT22;10957;50.968;6.828;2023-03-13T02:13:19;10.70;99.90
21590;DHT22;10957;50.968;6.828;2023-03-13T02:18:20;11.20;99.90
21590;DHT22;10957;50.968;6.828;2023-03-13T02:23:29;10.90;99.90
21590;DHT22;10957;50.968;6.828;2023-03-13T02:28:34;10.90;99.90
21590;DHT22;10957;50.968;6.828;2023-03-13T02:33:42;10.60;99.90
21590;DHT22;10957;50.968;6.828;2023-03-13T02:39:00;11.00;99.90
21590;DHT22;10957;50.968;6.828;2023-03-13T02:44:04;10.70;1.00
21590;DHT22;10957;50.968;6.828;2023-03-13T02:49:24;10.60;1.00
21590;DHT22;10957;50.968;6.828;2023-03-13T02:54:30;10.60;1.00
21590;DHT22;10957;50.968;6.828;2023-03-13T02:59:33;10.80;1.00
21590;DHT22;10957;50.968;6.828;2023-03-13T03:04:35;10.60;1.00
21590;DHT22;10957;50.968;6.828;2023-03-13T03:09:37;10.50;1.00
21590;DHT22;10957;50.968;6.828;2023-03-13T03:14:43;10.60;1.00
21590;DHT22;10957;50.968;6.828;2023-03-13T03:19:45;10.50;1.00
21590;DHT22;10957;50.968;6.828;2023-03-13T03:24:46;10.80;1.00
21590;DHT22;10957;50.968;6.828;2023-03-13T03:29:48;10.90;1.00
21590;DHT22;10957;50.968;6.828;2023-03-13T03:34:50;10.70;1.00
21590;DHT22;10957;50.968;6.828;2023-03-13T03:39:51;10.80;1.00
21590;DHT22;10957;50.968;6.828;2023-03-13T03:44:54;10.80;1.00
21590;DHT22;10957;50.968;6.828;2023-03-13T03:49:55;11.00;1.00
21590;DHT22;10957;50.968;6.828;2023-03-13T03:54:57;11.10;1.00
21590;DHT22;10957;50.968;6.828;2023-03-13T03:59:58;11.00;1.00
21590;DHT22;10957;50.968;6.828;2023-03-13T04:05:00;11.10;1.00
21590;DHT22;10957;50.968;6.828;2023-03-13T04:10:07;11.30;1.00
21590;DHT22;10957;50.968;6.828;2023-03-13T04:15:14;11.40;1.00
21590;DHT22;10957;50.968;6.828;2023-03-13T04:20:16;11.30;1.00
21590;DHT22;10957;50.968;6.828;2023-03-13T04:25:18;11.50;1.00
21590;DHT22;10957;50.968;6.828;2023-03-13T04:30:19;11.20;1.00
21590;DHT22;10957;50.968;6.828;2023-03-13T04:35:49;11.40;1.00
21590;DHT22;10957;50.968;6.828;2023-03-13T04:41:19;11.60;1.00
21590;DHT22;10957;50.968;6.828;2023-03-13T04:46:41;11.50;1.00
21590;DHT22;10957;50.968;6.828;2023-03-13T04:51:48;11.70;1.00
21590;DHT22;10957;50.968;6.828;2023-03-13T04:57:01;11.50;1.00
21590;DHT22;10957;50.968;6.828;2023-03-13T05:02:24;11.80;1.00
21590;DHT22;10957;50.968;6.828;2023-03-13T05:07:44;11.80;1.00
21590;DHT22;10957;50.968;6.828;2023-03-13T05:12:54;11.90;1.00
21590;DHT22;10957;50.968;6.828;2023-03-13T05:18:15;11.80;1.00
21590;DHT22;10957;50.968;6.828;2023-03-13T05:23:35;11.60;1.00
21590;DHT22;10957;50.968;6.828;2023-03-13T05:28:56;11.80;1.00
21590;DHT22;10957;50.968;6.828;2023-03-13T05:34:15;12.00;1.00
21590;DHT22;10957;50.968;6.828;2023-03-13T05:39:19;12.00;1.00
21590;DHT22;10957;50.968;6.828;2023-03-13T05:44:40;12.10;1.00
21590;DHT22;10957;50.968;6.828;2023-03-13T05:50:02;11.90;1.00
21590;DHT22;10957;50.968;6.828;2023-03-13T05:55:29;12.10;1.00
21590;DHT22;10957;50.968;6.828;2023-03-13T06:00:56;11.80;1.00
21590;DHT22;10957;50.968;6.828;2023-03-13T06:06:17;12.00;1.00
21590;DHT22;10957;50.968;6.828;2023-03-13T06:11:25;11.90;1.00
21590;DHT22;10957;50.968;6.828;2023-03-13T06:16:27;11.80;1.00
21590;DHT22;10957;50.968;6.828;2023-03-13T06:21:35;12.10;1.00
21590;DHT22;10957;50.968;6.828;2023-03-13T06:26:37;12.20;1.00
21590;DHT22;10957;50.968;6.828;2023-03-13T06:31:38;12.20;1.00
21590;DHT22;10957;50.968;6.828;2023-03-13T06:36:39;12.40;1.00
21590;DHT22;10957;50.968;6.828;2023-03-13T06:41:41;12.40;1.00
21590;DHT22;10957;50.968;6.828;2023-03-13T06:46:42;12.40;1.00
21590;DHT22;10957;50.968;6.828;2023-03-13T06:51:46;12.50;1.00
21590;DHT22;10957;50.968;6.828;2023-03-13T06:56:48;12.40;1.00
21590;DHT22;10957;50.968;6.828;2023-03-13T07:01:49;12.80;1.00
21590;DHT22;10957;50.968;6.828;2023-03-13T07:06:50;12.80;1.00
21590;DHT22;10957;50.968;6.828;2023-03-13T07:11:55;12.80;99.90
21590;DHT22;10957;50.968;6.828;2023-03-13T07:17:03;13.10;99.90
21590;DHT22;10957;50.968;6.828;2023-03-13T07:22:05;13.40;99.90
21590;DHT22;10957;50.968;6.828;2023-03-13T07:27:06;13.50;99.90
21590;DHT22;10957;50.968;6.828;2023-03-13T07:32:07;13.50;99.90
21590;DHT22;10957;50.968;6.828;2023-03-13T07:37:11;13.60;99.90
21590;DHT22;10957;50.968;6.828;2023-03-13T07:42:12;13.90;99.90
21590;DHT22;10957;50.968;6.828;2023-03-13T07:47:15;13.70;99.90
21590;DHT22;10957;50.968;6.828;2023-03-13T07:52:16;14.20;99.90
21590;DHT22;10957;50.968;6.828;2023-03-13T07:57:18;13.80;99.90
21590;DHT22;10957;50.968;6.828;2023-03-13T08:02:19;14.10;99.90
21590;DHT22;10957;50.968;6.828;2023-03-13T08:07:20;14.00;99.90
21590;DHT22;10957;50.968;6.828;2023-03-13T08:12:21;13.90;99.90
21590;DHT22;10957;50.968;6.828;2023-03-13T08:17:23;13.70;99.90
21590;DHT22;10957;50.968;6.828;2023-03-13T08:22:24;13.80;99.90
21590;DHT22;10957;50.968;6.828;2023-03-13T08:27:28;14.00;99.90
21590;DHT22;10957;50.968;6.828;2023-03-13T08:32:33;14.20;99.90
21590;DHT22;10957;50.968;6.828;2023-03-13T08:37:35;13.70;99.90
21590;DHT22;10957;50.968;6.828;2023-03-13T08:42:37;13.90;99.90
21590;DHT22;10957;50.968;6.828;2023-03-13T08:47:38;13.50;99.90
21590;DHT22;10957;50.968;6.828;2023-03-13T08:52:43;14.00;99.90
21590;DHT22;10957;50.968;6.828;2023-03-13T08:57:44;13.70;99.90
21590;DHT22;10957;50.968;6.828;2023-03-13T09:02:45;14.10;99.90
21590;DHT22;10957;50.968;6.828;2023-03-13T09:07:46;13.80;99.90
21590;DHT22;10957;50.968;6.828;2023-03-13T09:12:48;14.00;99.90
21590;DHT22;10957;50.968;6.828;2023-03-13T09:17:49;14.10;99.90
21590;DHT22;10957;50.968;6.828;2023-03-13T09:22:50;14.00;99.90
21590;DHT22;10957;50.968;6.828;2023-03-13T09:27:51;13.80;99.90
21590;DHT22;10957;50.968;6.828;2023-03-13T09:32:52;14.10;99.90
21590;DHT22;10957;50.968;6.828;2023-03-13T09:37:54;14.00;99.90
21590;DHT22;10957;50.968;6.828;2023-03-13T09:42:59;14.40;99.90
21590;DHT22;10957;50.968;6.828;2023-03-13T09:48:23;14.60;99.90
21590;DHT22;10957;50.968;6.828;2023-03-13T09:53:42;14.60;99.90
21590;DHT22;10957;50.968;6.828;2023-03-13T09:59:00;14.70;99.90
21590;DHT22;10957;50.968;6.828;2023-03-13T10:04:13;14.30;99.90
21590;DHT22;10957;50.968;6.828;2023-03-13T10:09:32;15.10;99.90
21590;DHT22;10957;50.968;6.828;2023-03-13T10:14:44;14.90;99.90
21590;DHT22;10957;50.968;6.828;2023-03-13T10:19:54;15.30;99.90
21590;DHT22;10957;50.968;6.828;2023-03-13T10:24:57;15.40;99.90
21590;DHT22;10957;50.968;6.828;2023-03-13T10:29:59;15.70;99.90
21590;DHT22;10957;50.968;6.828;2023-03-13T10:35:01;16.00;99.90
21590;DHT22;10957;50.968;6.828;2023-03-13T10:40:24;16.10;99.90
21590;DHT22;10957;50.968;6.828;2023-03-13T10:45:28;16.50;99.90
21590;DHT22;10957;50.968;6.828;2023-03-13T10:50:32;16.10;99.90
21590;DHT22;10957;50.968;6.828;2023-03-13T10:55:34;16.60;99.90
21590;DHT22;10957;50.968;6.828;2023-03-13T11:00:37;16.90;86.80
21590;DHT22;10957;50.968;6.828;2023-03-13T11:05:42;17.10;75.30
21590;DHT22;10957;50.968;6.828;2023-03-13T11:11:04;17.00;55.50
21590;DHT22;10957;50.968;6.828;2023-03-13T11:16:28;16.90;34.60
21590;DHT22;10957;50.968;6.828;2023-03-13T11:21:48;16.80;21.70
21590;DHT22;10957;50.968;6.828;2023-03-13T11:26:59;16.60;11.70
21590;DHT22;10957;50.968;6.828;2023-03-13T11:32:14;16.70;14.80
21590;DHT22;10957;50.968;6.828;2023-03-13T11:37:18;16.90;13.10
21590;DHT22;10957;50.968;6.828;2023-03-13T11:58:15;16.90;1.00
21590;DHT22;10957;50.968;6.828;2023-03-13T12:03:36;17.00;2.40
21590;DHT22;10957;50.968;6.828;2023-03-13T12:08:43;16.80;1.00
21590;DHT22;10957;50.968;6.828;2023-03-13T12:13:56;16.40;1.00
21590;DHT22;10957;50.968;6.828;2023-03-13T12:18:59;16.40;1.00
21590;DHT22;10957;50.968;6.828;2023-03-13T12:24:12;16.40;1.00
21590;DHT22;10957;50.968;6.828;2023-03-13T12:29:45;17.00;1.00
21590;DHT22;10957;50.968;6.828;2023-03-13T12:40:56;16.80;1.00
21590;DHT22;10957;50.968;6.828;2023-03-13T12:46:17;16.70;1.00
21590;DHT22;10957;50.968;6.828;2023-03-13T12:51:37;16.80;1.00
21590;DHT22;10957;50.968;6.828;2023-03-13T13:02:00;16.90;1.00
21590;DHT22;10957;50.968;6.828;2023-03-13T13:07:05;17.00;1.00
21590;DHT22;10957;50.968;6.828;2023-03-13T13:12:24;16.70;1.00
21590;DHT22;10957;50.968;6.828;2023-03-13T13:32:48;16.50;1.00
21590;DHT22;10957;50.968;6.828;2023-03-13T13:37:50;16.30;1.00
21590;DHT22;10957;50.968;6.828;2023-03-13T13:42:56;15.90;1.00
21590;DHT22;10957;50.968;6.828;2023-03-13T13:53:29;16.20;1.00
21590;DHT22;10957;50.968;6.828;2023-03-13T13:58:31;16.50;1.00
21590;DHT22;10957;50.968;6.828;2023-03-13T14:03:33;16.40;1.00
21590;DHT22;10957;50.968;6.828;2023-03-13T14:08:44;16.40;1.00
21590;DHT22;10957;50.968;6.828;2023-03-13T14:14:10;16.00;1.00
21590;DHT22;10957;50.968;6.828;2023-03-13T14:24:31;17.10;1.00
21590;DHT22;10957;50.968;6.828;2023-03-13T14:29:34;16.80;1.00
21590;DHT22;10957;50.968;6.828;2023-03-13T14:35:02;16.50;1.00
21590;DHT22;10957;50.968;6.828;2023-03-13T14:40:07;15.90;1.00
21590;DHT22;10957;50.968;6.828;2023-03-13T14:45:21;16.40;1.00
21590;DHT22;10957;50.968;6.828;2023-03-13T14:50:23;16.40;1.00
21590;DHT22;10957;50.968;6.828;2023-03-13T14:55:28;16.40;1.00
21590;DHT22;10957;50.968;6.828;2023-03-13T15:00:39;16.40;1.00
21590;DHT22;10957;50.968;6.828;2023-03-13T15:05:42;16.30;1.00
21590;DHT22;10957;50.968;6.828;2023-03-13T15:10:45;16.20;1.00
21590;DHT22;10957;50.968;6.828;2023-03-13T15:15:46;16.30;1.00
21590;DHT22;10957;50.968;6.828;2023-03-13T15:20:53;16.00;1.00
21590;DHT22;10957;50.968;6.828;2023-03-13T15:25:55;16.20;1.00
21590;DHT22;10957;50.968;6.828;2023-03-13T15:30:57;16.20;1.00
21590;DHT22;10957;50.968;6.828;2023-03-13T15:35:58;16.10;1.00
21590;DHT22;10957;50.968;6.828;2023-03-13T15:40:59;16.10;1.00
21590;DHT22;10957;50.968;6.828;2023-03-13T15:46:01;16.10;1.00
21590;DHT22;10957;50.968;6.828;2023-03-13T15:51:02;16.00;1.00
21590;DHT22;10957;50.968;6.828;2023-03-13T15:56:17;16.20;1.00
21590;DHT22;10957;50.968;6.828;2023-03-13T16:01:18;16.30;1.00
21590;DHT22;10957;50.968;6.828;2023-03-13T16:06:21;16.20;1.00
21590;DHT22;10957;50.968;6.828;2023-03-13T16:11:30;15.80;1.00
21590;DHT22;10957;50.968;6.828;2023-03-13T16:16:34;15.90;1.00
21590;DHT22;10957;50.968;6.828;2023-03-13T16:21:36;15.70;1.00
21590;DHT22;10957;50.968;6.828;2023-03-13T16:26:40;15.70;1.00
21590;DHT22;10957;50.968;6.828;2023-03-13T16:31:41;15.50;1.00
21590;DHT22;10957;50.968;6.828;2023-03-13T16:36:45;15.20;1.00
21590;DHT22;10957;50.968;6.828;2023-03-13T16:41:46;15.00;1.00
21590;DHT22;10957;50.968;6.828;2023-03-13T16:46:47;14.70;1.00
21590;DHT22;10957;50.968;6.828;2023-03-13T16:51:48;14.10;1.00
21590;DHT22;10957;50.968;6.828;2023-03-13T16:56:54;14.40;1.00
21590;DHT22;10957;50.968;6.828;2023-03-13T17:01:55;14.40;1.00
21590;DHT22;10957;50.968;6.828;2023-03-13T17:06:56;14.00;1.00
21590;DHT22;10957;50.968;6.828;2023-03-13T17:11:58;14.00;1.00
21590;DHT22;10957;50.968;6.828;2023-03-13T17:16:59;14.00;1.00
21590;DHT22;10957;50.968;6.828;2023-03-13T17:22:00;13.80;1.00
21590;DHT22;10957;50.968;6.828;2023-03-13T17:27:04;13.80;1.00
21590;DHT22;10957;50.968;6.828;2023-03-13T17:32:09;13.90;1.00
21590;DHT22;10957;50.968;6.828;2023-03-13T17:37:17;14.30;1.00
21590;DHT22;10957;50.968;6.828;2023-03-13T17:42:18;13.70;1.00
21590;DHT22;10957;50.968;6.828;2023-03-13T17:47:21;13.80;1.00
21590;DHT22;10957;50.968;6.828;2023-03-13T17:52:23;13.70;1.00
21590;DHT22;10957;50.968;6.828;2023-03-13T17:57:25;13.30;1.00
21590;DHT22;10957;50.968;6.828;2023-03-13T18:02:30;13.30;1.00
21590;DHT22;10957;50.968;6.828;2023-03-13T18:07:32;13.30;1.00
21590;DHT22;10957;50.968;6.828;2023-03-13T18:12:35;12.70;1.00
21590;DHT22;10957;50.968;6.828;2023-03-13T18:17:36;13.00;1.00
21590;DHT22;10957;50.968;6.828;2023-03-13T18:22:37;13.10;1.00
21590;DHT22;10957;50.968;6.828;2023-03-13T18:27:39;12.40;1.00
21590;DHT22;10957;50.968;6.828;2023-03-13T18:32:40;13.10;1.00
21590;DHT22;10957;50.968;6.828;2023-03-13T18:37:44;13.00;1.00
21590;DHT22;10957;50.968;6.828;2023-03-13T18:42:46;13.10;1.00
21590;DHT22;10957;50.968;6.828;2023-03-13T18:47:47;12.90;1.00
21590;DHT22;10957;50.968;6.828;2023-03-13T18:52:49;12.60;1.00
21590;DHT22;10957;50.968;6.828;2023-03-13T18:57:50;13.20;1.00
21590;DHT22;10957;50.968;6.828;2023-03-13T19:02:51;12.90;1.00
21590;DHT22;10957;50.968;6.828;2023-03-13T19:07:53;12.60;1.00
21590;DHT22;10957;50.968;6.828;2023-03-13T19:12:55;12.80;1.00
21590;DHT22;10957;50.968;6.828;2023-03-13T19:18:00;12.70;1.00
21590;DHT22;10957;50.968;6.828;2023-03-13T19:23:01;12.00;1.00
21590;DHT22;10957;50.968;6.828;2023-03-13T19:28:04;12.40;1.00
21590;DHT22;10957;50.968;6.828;2023-03-13T19:33:06;11.80;1.00
21590;DHT22;10957;50.968;6.828;2023-03-13T19:38:10;12.10;1.00
21590;DHT22;10957;50.968;6.828;2023-03-13T19:43:13;11.60;1.00
21590;DHT22;10957;50.968;6.828;2023-03-13T19:48:14;11.30;1.00
21590;DHT22;10957;50.968;6.828;2023-03-13T19:53:15;11.50;1.00
21590;DHT22;10957;50.968;6.828;2023-03-13T19:58:17;11.40;1.00
21590;DHT22;10957;50.968;6.828;2023-03-13T20:03:18;11.40;1.00
21590;DHT22;10957;50.968;6.828;2023-03-13T20:08:21;11.10;1.00
21590;DHT22;10957;50.968;6.828;2023-03-13T20:13:22;11.30;1.00
21590;DHT22;10957;50.968;6.828;2023-03-13T20:18:23;11.30;1.00
21590;DHT22;10957;50.968;6.828;2023-03-13T20:23:24;10.90;7.90
21590;DHT22;10957;50.968;6.828;2023-03-13T20:28:26;10.60;23.20
21590;DHT22;10957;50.968;6.828;2023-03-13T20:33:27;11.00;35.90
21590;DHT22;10957;50.968;6.828;2023-03-13T20:38:28;11.10;42.50
21590;DHT22;10957;50.968;6.828;2023-03-13T20:43:31;10.80;51.80
21590;DHT22;10957;50.968;6.828;2023-03-13T20:48:35;10.40;66.20
21590;DHT22;10957;50.968;6.828;2023-03-13T20:53:40;10.70;87.60
21590;DHT22;10957;50.968;6.828;2023-03-13T20:58:42;10.10;99.90
21590;DHT22;10957;50.968;6.828;2023-03-13T21:03:43;10.30;96.80
21590;DHT22;10957;50.968;6.828;2023-03-13T21:08:45;10.10;99.90
21590;DHT22;10957;50.968;6.828;2023-03-13T21:13:47;10.30;99.90
21590;DHT22;10957;50.968;6.828;2023-03-13T21:18:48;10.00;99.90
21590;DHT22;10957;50.968;6.828;2023-03-13T21:23:50;9.70;99.90
21590;DHT22;10957;50.968;6.828;2023-03-13T21:28:54;10.00;99.90
21590;DHT22;10957;50.968;6.828;2023-03-13T21:33:55;9.80;99.90
21590;DHT22;10957;50.968;6.828;2023-03-13T21:38:56;9.90;99.90
21590;DHT22;10957;50.968;6.828;2023-03-13T21:43:57;9.30;99.90
21590;DHT22;10957;50.968;6.828;2023-03-13T21:48:59;9.30;99.90
21590;DHT22;10957;50.968;6.828;2023-03-13T21:54:00;9.80;99.90
21590;DHT22;10957;50.968;6.828;2023-03-13T21:59:02;9.50;99.90
21590;DHT22;10957;50.968;6.828;2023-03-13T22:04:03;10.10;99.90
21590;DHT22;10957;50.968;6.828;2023-03-13T22:09:05;10.10;99.90
21590;DHT22;10957;50.968;6.828;2023-03-13T22:14:08;10.20;99.90
21590;DHT22;10957;50.968;6.828;2023-03-13T22:19:13;10.00;99.90
21590;DHT22;10957;50.968;6.828;2023-03-13T22:24:19;10.10;99.90
21590;DHT22;10957;50.968;6.828;2023-03-13T22:29:24;10.00;99.90
21590;DHT22;10957;50.968;6.828;2023-03-13T22:34:30;10.10;99.90
21590;DHT22;10957;50.968;6.828;2023-03-13T22:39:32;9.80;99.90
21590;DHT22;10957;50.968;6.828;2023-03-13T22:44:34;9.80;99.90
21590;DHT22;10957;50.968;6.828;2023-03-13T22:49:35;9.50;99.90
21590;DHT22;10957;50.968;6.828;2023-03-13T22:54:37;9.10;99.90
21590;DHT22;10957;50.968;6.828;2023-03-13T22:59:39;9.20;99.90
21590;DHT22;10957;50.968;6.828;2023-03-13T23:04:40;9.40;99.90
21590;DHT22;10957;50.968;6.828;2023-03-13T23:09:42;9.30;99.90
21590;DHT22;10957;50.968;6.828;2023-03-13T23:14:43;9.20;99.90
21590;DHT22;10957;50.968;6.828;2023-03-13T23:19:45;9.20;99.90
21590;DHT22;10957;50.968;6.828;2023-03-13T23:24:47;9.60;99.90
21590;DHT22;10957;50.968;6.828;2023-03-13T23:29:48;9.40;99.90
21590;DHT22;10957;50.968;6.828;2023-03-13T23:34:51;9.60;99.90
21590;DHT22;10957;50.968;6.828;2023-03-13T23:39:52;9.50;99.90
21590;DHT22;10957;50.968;6.828;2023-03-13T23:44:53;9.60;99.90
21590;DHT22;10957;50.968;6.828;2023-03-13T23:49:55;9.70;99.90
21590;DHT22;10957;50.968;6.828;2023-03-13T23:54:56;9.70;99.90
21590;DHT22;10957;50.968;6.828;2023-03-13T23:59:57;10.10;99.90
